sensor_id;sensor_type;location;lat;lon;timestamp;pressure;altitude;pressure_sealevel;temperature;humidity
7297;BME280;40758;54.038;11.684;2023-08-17T00:02:14;102098.25;;;16.04;100.00
7297;BME280;40758;54.038;11.684;2023-08-17T00:04:41;102090.56;;;15.94;100.00
7297;BME280;40758;54.038;11.684;2023-08-17T00:07:08;102091.84;;;15.92;100.00
7297;BME280;40758;54.038;11.684;2023-08-17T00:09:35;102093.97;;;15.90;100.00
7297;BME280;40758;54.038;11.684;2023-08-17T00:12:02;102092.19;;;15.77;100.00
7297;BME280;40758;54.038;11.684;2023-08-17T00:14:29;102097.25;;;15.74;100.00
7297;BME280;40758;54.038;11.684;2023-08-17T00:16:57;102092.06;;;15.65;100.00
7297;BME280;40758;54.038;11.684;2023-08-17T00:19:24;102090.84;;;15.55;100.00
7297;BME280;40758;54.038;11.684;2023-08-17T00:21:51;102111.22;;;15.59;100.00
7297;BME280;40758;54.038;11.684;2023-08-17T00:24:19;102087.81;;;15.38;100.00
7297;BME280;40758;54.038;11.684;2023-08-17T00:26:45;102104.19;;;15.44;100.00
7297;BME280;40758;54.038;11.684;2023-08-17T00:29:12;102099.53;;;15.45;100.00
7297;BME280;40758;54.038;11.684;2023-08-17T00:31:41;102090.72;;;15.43;100.00
7297;BME280;40758;54.038;11.684;2023-08-17T00:34:08;102109.31;;;15.59;100.00
7297;BME280;40758;54.038;11.684;2023-08-17T00:36:35;102085.72;;;15.72;100.00
7297;BME280;40758;54.038;11.684;2023-08-17T00:39:02;102105.06;;;15.70;100.00
7297;BME280;40758;54.038;11.684;2023-08-17T00:41:28;102097.97;;;15.62;100.00
7297;BME280;40758;54.038;11.684;2023-08-17T00:43:56;102096.69;;;15.58;100.00
7297;BME280;40758;54.038;11.684;2023-08-17T00:46:23;102089.84;;;15.49;100.00
7297;BME280;40758;54.038;11.684;2023-08-17T00:48:50;102076.06;;;15.31;100.00
7297;BME280;40758;54.038;11.684;2023-08-17T00:51:17;102080.31;;;15.27;100.00
7297;BME280;40758;54.038;11.684;2023-08-17T00:53:46;102085.41;;;15.16;100.00
7297;BME280;40758;54.038;11.684;2023-08-17T00:56:13;102072.88;;;15.02;100.00
7297;BME280;40758;54.038;11.684;2023-08-17T00:58:42;102064.50;;;14.90;100.00
7297;BME280;40758;54.038;11.684;2023-08-17T01:01:09;102082.16;;;14.95;100.00
7297;BME280;40758;54.038;11.684;2023-08-17T01:03:40;102090.84;;;14.78;100.00
7297;BME280;40758;54.038;11.684;2023-08-17T01:06:08;102084.19;;;14.54;100.00
7297;BME280;40758;54.038;11.684;2023-08-17T01:08:37;102092.00;;;14.51;100.00
7297;BME280;40758;54.038;11.684;2023-08-17T01:16:29;102081.06;;;14.31;100.00
7297;BME280;40758;54.038;11.684;2023-08-17T01:18:58;102075.38;;;14.52;100.00
7297;BME280;40758;54.038;11.684;2023-08-17T01:21:41;102082.50;;;14.60;100.00
7297;BME280;40758;54.038;11.684;2023-08-17T01:24:11;102080.00;;;14.45;100.00
7297;BME280;40758;54.038;11.684;2023-08-17T01:26:37;102080.22;;;14.37;100.00
7297;BME280;40758;54.038;11.684;2023-08-17T01:29:04;102071.63;;;14.33;100.00
7297;BME280;40758;54.038;11.684;2023-08-17T01:34:33;102064.50;;;14.32;100.00
7297;BME280;40758;54.038;11.684;2023-08-17T01:37:03;102062.13;;;14.43;100.00
7297;BME280;40758;54.038;11.684;2023-08-17T01:39:44;102055.00;;;14.35;100.00
7297;BME280;40758;54.038;11.684;2023-08-17T01:42:15;102046.00;;;14.28;100.00
7297;BME280;40758;54.038;11.684;2023-08-17T01:44:43;102051.88;;;14.25;100.00
7297;BME280;40758;54.038;11.684;2023-08-17T01:47:10;102047.03;;;14.33;100.00
7297;BME280;40758;54.038;11.684;2023-08-17T01:49:38;102039.91;;;14.19;100.00
7297;BME280;40758;54.038;11.684;2023-08-17T01:52:07;102055.06;;;14.08;100.00
7297;BME280;40758;54.038;11.684;2023-08-17T01:54:33;102028.03;;;13.80;100.00
7297;BME280;40758;54.038;11.684;2023-08-17T01:57:00;102042.94;;;13.78;100.00
7297;BME280;40758;54.038;11.684;2023-08-17T01:59:27;102027.84;;;13.69;100.00
7297;BME280;40758;54.038;11.684;2023-08-17T02:01:54;102040.81;;;13.67;100.00
7297;BME280;40758;54.038;11.684;2023-08-17T02:04:21;102024.25;;;13.48;100.00
7297;BME280;40758;54.038;11.684;2023-08-17T02:06:49;102040.41;;;13.56;100.00
7297;BME280;40758;54.038;11.684;2023-08-17T02:09:16;102018.16;;;13.40;100.00
7297;BME280;40758;54.038;11.684;2023-08-17T02:11:42;102031.19;;;13.71;100.00
7297;BME280;40758;54.038;11.684;2023-08-17T02:14:09;102035.81;;;13.70;100.00
7297;BME280;40758;54.038;11.684;2023-08-17T02:16:36;102033.88;;;13.84;100.00
7297;BME280;40758;54.038;11.684;2023-08-17T02:19:03;102034.53;;;13.73;100.00
7297;BME280;40758;54.038;11.684;2023-08-17T02:21:29;102037.88;;;13.62;100.00
7297;BME280;40758;54.038;11.684;2023-08-17T02:23:56;102031.16;;;13.51;100.00
7297;BME280;40758;54.038;11.684;2023-08-17T02:26:23;102040.41;;;13.43;100.00
7297;BME280;40758;54.038;11.684;2023-08-17T02:28:51;102040.41;;;13.43;100.00
7297;BME280;40758;54.038;11.684;2023-08-17T02:31:21;102040.41;;;13.50;100.00
7297;BME280;40758;54.038;11.684;2023-08-17T02:33:48;102032.22;;;13.50;100.00
7297;BME280;40758;54.038;11.684;2023-08-17T02:36:15;102054.25;;;13.55;100.00
7297;BME280;40758;54.038;11.684;2023-08-17T02:38:42;102049.63;;;13.49;100.00
7297;BME280;40758;54.038;11.684;2023-08-17T02:41:09;102053.19;;;13.36;100.00
7297;BME280;40758;54.038;11.684;2023-08-17T02:43:36;102067.69;;;13.37;100.00
7297;BME280;40758;54.038;11.684;2023-08-17T02:46:03;102063.06;;;13.30;100.00
7297;BME280;40758;54.038;11.684;2023-08-17T02:48:33;102061.16;;;13.31;100.00
7297;BME280;40758;54.038;11.684;2023-08-17T02:51:00;102049.19;;;13.32;100.00
7297;BME280;40758;54.038;11.684;2023-08-17T02:53:27;102059.94;;;13.60;100.00
7297;BME280;40758;54.038;11.684;2023-08-17T02:55:55;102055.75;;;13.64;100.00
7297;BME280;40758;54.038;11.684;2023-08-17T02:58:22;102045.47;;;13.53;100.00
7297;BME280;40758;54.038;11.684;2023-08-17T03:00:51;102061.59;;;13.48;100.00
7297;BME280;40758;54.038;11.684;2023-08-17T03:03:18;102057.19;;;13.40;100.00
7297;BME280;40758;54.038;11.684;2023-08-17T03:05:45;102058.22;;;13.39;100.00
7297;BME280;40758;54.038;11.684;2023-08-17T03:08:12;102050.03;;;13.39;100.00
7297;BME280;40758;54.038;11.684;2023-08-17T03:10:39;102050.88;;;13.33;100.00
7297;BME280;40758;54.038;11.684;2023-08-17T03:13:06;102055.50;;;13.32;100.00
7297;BME280;40758;54.038;11.684;2023-08-17T03:15:33;102041.81;;;13.19;100.00
7297;BME280;40758;54.038;11.684;2023-08-17T03:18:01;102059.06;;;13.33;100.00
7297;BME280;40758;54.038;11.684;2023-08-17T03:20:29;102047.47;;;13.18;100.00
7297;BME280;40758;54.038;11.684;2023-08-17T03:22:58;102062.22;;;13.23;100.00
7297;BME280;40758;54.038;11.684;2023-08-17T03:25:26;102064.56;;;13.40;100.00
7297;BME280;40758;54.038;11.684;2023-08-17T03:27:53;102080.31;;;13.57;100.00
7297;BME280;40758;54.038;11.684;2023-08-17T03:30:20;102072.09;;;13.44;100.00
7297;BME280;40758;54.038;11.684;2023-08-17T03:32:46;102082.38;;;13.42;100.00
7297;BME280;40758;54.038;11.684;2023-08-17T03:35:13;102082.59;;;13.34;100.00
7297;BME280;40758;54.038;11.684;2023-08-17T03:37:40;102080.03;;;13.26;100.00
7297;BME280;40758;54.038;11.684;2023-08-17T03:40:08;102057.59;;;13.24;100.00
7297;BME280;40758;54.038;11.684;2023-08-17T03:42:35;102061.38;;;13.43;100.00
7297;BME280;40758;54.038;11.684;2023-08-17T03:45:03;102055.28;;;13.27;100.00
7297;BME280;40758;54.038;11.684;2023-08-17T03:47:30;102084.66;;;13.32;100.00
7297;BME280;40758;54.038;11.684;2023-08-17T03:49:57;102062.00;;;13.25;100.00
7297;BME280;40758;54.038;11.684;2023-08-17T03:52:23;102074.59;;;13.39;100.00
7297;BME280;40758;54.038;11.684;2023-08-17T03:54:50;102071.88;;;13.39;100.00
7297;BME280;40758;54.038;11.684;2023-08-17T03:57:17;102084.88;;;13.37;100.00
7297;BME280;40758;54.038;11.684;2023-08-17T03:59:44;102079.03;;;13.34;100.00
7297;BME280;40758;54.038;11.684;2023-08-17T04:02:11;102080.03;;;13.32;100.00
7297;BME280;40758;54.038;11.684;2023-08-17T04:04:37;102090.78;;;13.41;100.00
7297;BME280;40758;54.038;11.684;2023-08-17T04:07:09;102073.34;;;13.35;100.00
7297;BME280;40758;54.038;11.684;2023-08-17T04:09:36;102076.94;;;13.42;100.00
7297;BME280;40758;54.038;11.684;2023-08-17T04:12:03;102083.44;;;13.54;100.00
7297;BME280;40758;54.038;11.684;2023-08-17T04:14:34;102063.91;;;13.51;100.00
7297;BME280;40758;54.038;11.684;2023-08-17T04:17:00;102088.06;;;13.67;100.00
7297;BME280;40758;54.038;11.684;2023-08-17T04:19:27;102086.81;;;13.70;100.00
7297;BME280;40758;54.038;11.684;2023-08-17T04:21:54;102084.09;;;13.76;100.00
7297;BME280;40758;54.038;11.684;2023-08-17T04:24:21;102072.94;;;13.78;100.00
7297;BME280;40758;54.038;11.684;2023-08-17T04:26:47;102067.50;;;13.78;100.00
7297;BME280;40758;54.038;11.684;2023-08-17T04:29:15;102072.31;;;13.89;100.00
7297;BME280;40758;54.038;11.684;2023-08-17T04:31:42;102066.84;;;14.02;100.00
7297;BME280;40758;54.038;11.684;2023-08-17T04:34:08;102075.22;;;14.27;100.00
7297;BME280;40758;54.038;11.684;2023-08-17T04:36:35;102064.50;;;14.32;100.00
7297;BME280;40758;54.038;11.684;2023-08-17T04:39:02;102081.06;;;14.51;100.00
7297;BME280;40758;54.038;11.684;2023-08-17T04:41:30;102078.50;;;14.62;100.00
7297;BME280;40758;54.038;11.684;2023-08-17T04:43:57;102082.66;;;14.72;100.00
7297;BME280;40758;54.038;11.684;2023-08-17T04:46:24;102086.00;;;14.80;100.00
7297;BME280;40758;54.038;11.684;2023-08-17T04:48:50;102076.56;;;14.76;100.00
7297;BME280;40758;54.038;11.684;2023-08-17T04:51:18;102090.56;;;14.93;100.00
7297;BME280;40758;54.038;11.684;2023-08-17T04:53:45;102094.75;;;15.02;100.00
7297;BME280;40758;54.038;11.684;2023-08-17T04:56:12;102074.53;;;15.03;100.00
7297;BME280;40758;54.038;11.684;2023-08-17T04:58:38;102087.53;;;15.14;100.00
7297;BME280;40758;54.038;11.684;2023-08-17T05:01:05;102084.56;;;15.16;100.00
7297;BME280;40758;54.038;11.684;2023-08-17T05:03:32;102093.78;;;15.22;100.00
7297;BME280;40758;54.038;11.684;2023-08-17T05:06:00;102098.22;;;15.23;100.00
7297;BME280;40758;54.038;11.684;2023-08-17T05:08:26;102106.31;;;15.36;100.00
7297;BME280;40758;54.038;11.684;2023-08-17T05:10:53;102086.50;;;15.40;100.00
7297;BME280;40758;54.038;11.684;2023-08-17T05:13:20;102100.28;;;15.65;100.00
7297;BME280;40758;54.038;11.684;2023-08-17T05:15:47;102096.03;;;15.69;100.00
7297;BME280;40758;54.038;11.684;2023-08-17T05:18:14;102101.00;;;15.79;100.00
7297;BME280;40758;54.038;11.684;2023-08-17T05:20:41;102097.38;;;15.85;100.00
7297;BME280;40758;54.038;11.684;2023-08-17T05:23:07;102096.25;;;15.93;100.00
7297;BME280;40758;54.038;11.684;2023-08-17T05:25:34;102094.06;;;16.02;100.00
7297;BME280;40758;54.038;11.684;2023-08-17T05:28:01;102087.75;;;16.01;100.00
7297;BME280;40758;54.038;11.684;2023-08-17T05:30:28;102094.78;;;16.15;100.00
7297;BME280;40758;54.038;11.684;2023-08-17T05:32:54;102106.41;;;16.36;100.00
7297;BME280;40758;54.038;11.684;2023-08-17T05:35:21;102098.63;;;16.51;100.00
7297;BME280;40758;54.038;11.684;2023-08-17T05:37:48;102085.53;;;16.53;100.00
7297;BME280;40758;54.038;11.684;2023-08-17T05:40:15;102089.06;;;16.79;100.00
7297;BME280;40758;54.038;11.684;2023-08-17T05:42:42;102093.81;;;17.01;100.00
7297;BME280;40758;54.038;11.684;2023-08-17T05:45:09;102082.91;;;17.13;100.00
7297;BME280;40758;54.038;11.684;2023-08-17T05:47:36;102078.63;;;17.17;100.00
7297;BME280;40758;54.038;11.684;2023-08-17T05:50:03;102085.28;;;17.40;100.00
7297;BME280;40758;54.038;11.684;2023-08-17T05:52:31;102071.19;;;17.48;100.00
7297;BME280;40758;54.038;11.684;2023-08-17T05:54:58;102080.09;;;17.73;100.00
7297;BME280;40758;54.038;11.684;2023-08-17T05:57:25;102069.97;;;17.86;100.00
7297;BME280;40758;54.038;11.684;2023-08-17T05:59:52;102075.13;;;18.17;100.00
7297;BME280;40758;54.038;11.684;2023-08-17T06:02:18;102078.69;;;18.29;100.00
7297;BME280;40758;54.038;11.684;2023-08-17T06:04:47;102058.50;;;18.24;100.00
7297;BME280;40758;54.038;11.684;2023-08-17T06:07:14;102053.34;;;18.39;100.00
7297;BME280;40758;54.038;11.684;2023-08-17T06:09:40;102045.56;;;18.36;100.00
7297;BME280;40758;54.038;11.684;2023-08-17T06:12:07;102046.91;;;18.33;100.00
7297;BME280;40758;54.038;11.684;2023-08-17T06:14:34;102053.47;;;18.44;100.00
7297;BME280;40758;54.038;11.684;2023-08-17T06:17:01;102055.00;;;18.52;100.00
7297;BME280;40758;54.038;11.684;2023-08-17T06:19:28;102057.47;;;18.77;100.00
7297;BME280;40758;54.038;11.684;2023-08-17T06:21:54;102049.72;;;18.62;100.00
7297;BME280;40758;54.038;11.684;2023-08-17T06:24:21;102066.34;;;18.67;100.00
7297;BME280;40758;54.038;11.684;2023-08-17T06:26:48;102049.09;;;18.72;100.00
7297;BME280;40758;54.038;11.684;2023-08-17T06:29:15;102058.03;;;18.91;100.00
7297;BME280;40758;54.038;11.684;2023-08-17T06:31:41;102064.69;;;18.95;100.00
7297;BME280;40758;54.038;11.684;2023-08-17T06:34:08;102069.00;;;19.02;100.00
7297;BME280;40758;54.038;11.684;2023-08-17T06:36:38;102087.44;;;19.02;100.00
7297;BME280;40758;54.038;11.684;2023-08-17T06:39:04;102072.41;;;19.09;100.00
7297;BME280;40758;54.038;11.684;2023-08-17T06:41:31;102065.72;;;19.05;100.00
7297;BME280;40758;54.038;11.684;2023-08-17T06:43:58;102088.59;;;19.06;100.00
7297;BME280;40758;54.038;11.684;2023-08-17T06:46:25;102095.06;;;19.00;100.00
7297;BME280;40758;54.038;11.684;2023-08-17T06:48:51;102082.28;;;18.94;100.00
7297;BME280;40758;54.038;11.684;2023-08-17T06:51:18;102094.63;;;18.91;100.00
7297;BME280;40758;54.038;11.684;2023-08-17T06:53:45;102109.09;;;18.98;100.00
7297;BME280;40758;54.038;11.684;2023-08-17T06:56:12;102110.16;;;18.97;100.00
7297;BME280;40758;54.038;11.684;2023-08-17T06:58:38;102095.47;;;18.92;100.00
7297;BME280;40758;54.038;11.684;2023-08-17T07:01:05;102105.19;;;18.82;100.00
7297;BME280;40758;54.038;11.684;2023-08-17T07:03:32;102112.63;;;18.70;100.00
7297;BME280;40758;54.038;11.684;2023-08-17T07:06:00;102117.28;;;18.70;100.00
7297;BME280;40758;54.038;11.684;2023-08-17T07:08:26;102111.66;;;18.53;100.00
7297;BME280;40758;54.038;11.684;2023-08-17T07:10:56;102129.59;;;18.44;100.00
7297;BME280;40758;54.038;11.684;2023-08-17T07:13:22;102112.66;;;18.23;100.00
7297;BME280;40758;54.038;11.684;2023-08-17T07:15:49;102133.69;;;18.29;100.00
7297;BME280;40758;54.038;11.684;2023-08-17T07:18:16;102127.59;;;18.04;100.00
7297;BME280;40758;54.038;11.684;2023-08-17T07:20:43;102162.59;;;18.08;100.00
7297;BME280;40758;54.038;11.684;2023-08-17T07:23:09;102140.69;;;17.90;100.00
7297;BME280;40758;54.038;11.684;2023-08-17T07:25:36;102141.56;;;18.14;100.00
7297;BME280;40758;54.038;11.684;2023-08-17T07:28:03;102131.88;;;18.12;100.00
7297;BME280;40758;54.038;11.684;2023-08-17T07:30:30;102138.47;;;18.22;100.00
7297;BME280;40758;54.038;11.684;2023-08-17T07:32:57;102139.91;;;18.37;100.00
7297;BME280;40758;54.038;11.684;2023-08-17T07:35:24;102138.59;;;18.39;100.00
7297;BME280;40758;54.038;11.684;2023-08-17T07:37:51;102139.56;;;18.33;100.00
7297;BME280;40758;54.038;11.684;2023-08-17T07:40:32;102137.25;;;18.18;100.00
7297;BME280;40758;54.038;11.684;2023-08-17T07:42:59;102150.63;;;18.15;100.00
7297;BME280;40758;54.038;11.684;2023-08-17T07:45:26;102146.22;;;18.14;100.00
7297;BME280;40758;54.038;11.684;2023-08-17T07:47:53;102136.41;;;18.06;100.00
7297;BME280;40758;54.038;11.684;2023-08-17T07:50:20;102149.56;;;18.04;100.00
7297;BME280;40758;54.038;11.684;2023-08-17T07:52:48;102154.00;;;18.05;100.00
7297;BME280;40758;54.038;11.684;2023-08-17T07:55:16;102144.78;;;18.11;100.00
7297;BME280;40758;54.038;11.684;2023-08-17T07:57:42;102148.75;;;18.15;100.00
7297;BME280;40758;54.038;11.684;2023-08-17T08:00:10;102143.97;;;18.22;100.00
7297;BME280;40758;54.038;11.684;2023-08-17T08:02:37;102134.19;;;18.26;100.00
7297;BME280;40758;54.038;11.684;2023-08-17T08:05:04;102124.47;;;18.35;100.00
7297;BME280;40758;54.038;11.684;2023-08-17T08:07:31;102138.81;;;18.38;100.00
7297;BME280;40758;54.038;11.684;2023-08-17T08:09:58;102132.59;;;18.54;100.00
7297;BME280;40758;54.038;11.684;2023-08-17T08:12:27;102135.13;;;18.55;100.00
7297;BME280;40758;54.038;11.684;2023-08-17T08:14:54;102111.81;;;18.34;100.00
7297;BME280;40758;54.038;11.684;2023-08-17T08:17:21;102116.72;;;18.32;100.00
7297;BME280;40758;54.038;11.684;2023-08-17T08:19:48;102105.34;;;18.17;100.00
7297;BME280;40758;54.038;11.684;2023-08-17T08:22:17;102118.72;;;18.14;100.00
7297;BME280;40758;54.038;11.684;2023-08-17T08:24:44;102110.16;;;18.10;100.00
7297;BME280;40758;54.038;11.684;2023-08-17T08:27:11;102106.91;;;18.13;100.00
7297;BME280;40758;54.038;11.684;2023-08-17T08:29:38;102102.84;;;18.16;100.00
7297;BME280;40758;54.038;11.684;2023-08-17T08:32:05;102112.66;;;18.23;100.00
7297;BME280;40758;54.038;11.684;2023-08-17T08:34:31;102108.94;;;18.18;100.00
7297;BME280;40758;54.038;11.684;2023-08-17T08:36:58;102113.47;;;18.47;100.00
7297;BME280;40758;54.038;11.684;2023-08-17T08:39:25;102123.03;;;18.56;100.00
7297;BME280;40758;54.038;11.684;2023-08-17T08:41:56;102102.44;;;18.59;100.00
7297;BME280;40758;54.038;11.684;2023-08-17T08:44:23;102084.75;;;18.55;100.00
7297;BME280;40758;54.038;11.684;2023-08-17T08:46:50;102105.31;;;18.64;100.00
7297;BME280;40758;54.038;11.684;2023-08-17T08:49:20;102091.56;;;18.64;100.00
7297;BME280;40758;54.038;11.684;2023-08-17T08:51:49;102098.13;;;18.86;100.00
7297;BME280;40758;54.038;11.684;2023-08-17T08:54:20;102107.22;;;18.87;100.00
7297;BME280;40758;54.038;11.684;2023-08-17T08:57:01;102098.97;;;18.75;100.00
7297;BME280;40758;54.038;11.684;2023-08-17T08:59:28;102072.19;;;18.59;100.00
7297;BME280;40758;54.038;11.684;2023-08-17T09:01:57;102072.91;;;18.54;100.00
7297;BME280;40758;54.038;11.684;2023-08-17T09:04:25;102100.78;;;18.70;100.00
7297;BME280;40758;54.038;11.684;2023-08-17T09:06:53;102074.13;;;18.47;100.00
7297;BME280;40758;54.038;11.684;2023-08-17T09:09:20;102100.66;;;18.53;100.00
7297;BME280;40758;54.038;11.684;2023-08-17T09:11:47;102095.56;;;18.33;100.00
7297;BME280;40758;54.038;11.684;2023-08-17T09:14:14;102089.69;;;18.18;100.00
7297;BME280;40758;54.038;11.684;2023-08-17T09:16:41;102087.66;;;18.01;100.00
7297;BME280;40758;54.038;11.684;2023-08-17T09:19:08;102060.19;;;18.01;100.00
7297;BME280;40758;54.038;11.684;2023-08-17T09:21:35;102102.84;;;18.39;100.00
7297;BME280;40758;54.038;11.684;2023-08-17T09:24:02;102074.41;;;18.33;100.00
7297;BME280;40758;54.038;11.684;2023-08-17T09:26:56;102106.44;;;18.40;100.00
7297;BME280;40758;54.038;11.684;2023-08-17T09:29:36;102093.03;;;18.20;100.00
7297;BME280;40758;54.038;11.684;2023-08-17T09:32:14;102084.56;;;18.10;100.00
7297;BME280;40758;54.038;11.684;2023-08-17T09:35:15;102104.16;;;18.01;100.00
7297;BME280;40758;54.038;11.684;2023-08-17T09:41:13;102098.38;;;17.79;100.00
7297;BME280;40758;54.038;11.684;2023-08-17T09:44:27;102081.34;;;17.47;100.00
7297;BME280;40758;54.038;11.684;2023-08-17T09:46:56;102083.22;;;17.35;100.00
7297;BME280;40758;54.038;11.684;2023-08-17T09:49:25;102095.31;;;17.46;100.00
7297;BME280;40758;54.038;11.684;2023-08-17T09:51:52;102093.81;;;17.32;100.00
7297;BME280;40758;54.038;11.684;2023-08-17T09:54:23;102118.94;;;17.47;100.00
7297;BME280;40758;54.038;11.684;2023-08-17T09:56:56;102100.63;;;17.29;100.00
7297;BME280;40758;54.038;11.684;2023-08-17T09:59:24;102082.66;;;17.15;100.00
7297;BME280;40758;54.038;11.684;2023-08-17T10:01:51;102093.69;;;17.26;100.00
7297;BME280;40758;54.038;11.684;2023-08-17T10:04:22;102103.28;;;17.36;100.00
7297;BME280;40758;54.038;11.684;2023-08-17T10:06:58;102104.69;;;17.38;100.00
7297;BME280;40758;54.038;11.684;2023-08-17T10:09:31;102086.22;;;17.34;100.00
7297;BME280;40758;54.038;11.684;2023-08-17T10:12:08;102107.47;;;17.50;100.00
7297;BME280;40758;54.038;11.684;2023-08-17T10:14:39;102104.97;;;17.48;100.00
7297;BME280;40758;54.038;11.684;2023-08-17T10:17:15;102111.06;;;17.50;100.00
7297;BME280;40758;54.038;11.684;2023-08-17T10:19:59;102089.81;;;17.46;100.00
7297;BME280;40758;54.038;11.684;2023-08-17T10:25:18;102083.25;;;17.47;100.00
7297;BME280;40758;54.038;11.684;2023-08-17T10:27:49;102040.47;;;17.39;100.00
7297;BME280;40758;54.038;11.684;2023-08-17T10:30:15;102051.50;;;17.51;100.00
7297;BME280;40758;54.038;11.684;2023-08-17T10:32:42;102046.75;;;17.70;100.00
7297;BME280;40758;54.038;11.684;2023-08-17T10:35:13;102062.88;;;17.66;100.00
7297;BME280;40758;54.038;11.684;2023-08-17T10:37:40;102063.25;;;17.70;100.00
7297;BME280;40758;54.038;11.684;2023-08-17T10:40:07;102041.22;;;17.46;100.00
7297;BME280;40758;54.038;11.684;2023-08-17T10:42:41;102057.72;;;17.58;100.00
7297;BME280;40758;54.038;11.684;2023-08-17T10:45:30;102068.41;;;17.78;100.00
7297;BME280;40758;54.038;11.684;2023-08-17T10:50:38;102069.25;;;17.78;100.00
7297;BME280;40758;54.038;11.684;2023-08-17T10:53:11;102077.03;;;17.81;100.00
7297;BME280;40758;54.038;11.684;2023-08-17T10:55:44;102072.94;;;17.72;100.00
7297;BME280;40758;54.038;11.684;2023-08-17T10:58:12;102071.69;;;17.68;100.00
7297;BME280;40758;54.038;11.684;2023-08-17T11:00:42;102062.97;;;17.60;100.00
7297;BME280;40758;54.038;11.684;2023-08-17T11:03:18;102067.53;;;17.66;100.00
7297;BME280;40758;54.038;11.684;2023-08-17T11:05:50;102078.25;;;17.55;100.00
7297;BME280;40758;54.038;11.684;2023-08-17T11:08:38;102058.75;;;17.34;100.00
7297;BME280;40758;54.038;11.684;2023-08-17T11:11:14;102064.44;;;17.20;100.00
7297;BME280;40758;54.038;11.684;2023-08-17T11:13:43;102076.81;;;17.11;100.00
7297;BME280;40758;54.038;11.684;2023-08-17T11:16:13;102086.34;;;17.09;100.00
7297;BME280;40758;54.038;11.684;2023-08-17T11:18:44;102084.81;;;17.13;100.00
7297;BME280;40758;54.038;11.684;2023-08-17T11:21:12;102076.09;;;17.16;100.00
7297;BME280;40758;54.038;11.684;2023-08-17T11:23:45;102082.50;;;17.28;100.00
7297;BME280;40758;54.038;11.684;2023-08-17T11:26:16;102091.22;;;17.37;100.00
7297;BME280;40758;54.038;11.684;2023-08-17T11:28:43;102081.75;;;17.33;100.00
7297;BME280;40758;54.038;11.684;2023-08-17T11:31:13;102076.91;;;17.35;100.00
7297;BME280;40758;54.038;11.684;2023-08-17T11:33:42;102074.16;;;17.35;100.00
7297;BME280;40758;54.038;11.684;2023-08-17T11:36:09;102091.78;;;17.57;100.00
7297;BME280;40758;54.038;11.684;2023-08-17T11:38:38;102087.81;;;17.53;100.00
7297;BME280;40758;54.038;11.684;2023-08-17T11:41:06;102084.22;;;17.52;100.00
7297;BME280;40758;54.038;11.684;2023-08-17T11:43:36;102081.94;;;17.49;100.00
7297;BME280;40758;54.038;11.684;2023-08-17T11:46:03;102081.81;;;17.44;100.00
7297;BME280;40758;54.038;11.684;2023-08-17T11:48:32;102099.88;;;17.52;100.00
7297;BME280;40758;54.038;11.684;2023-08-17T11:51:02;102080.84;;;17.50;100.00
7297;BME280;40758;54.038;11.684;2023-08-17T11:53:38;102096.22;;;17.70;100.00
7297;BME280;40758;54.038;11.684;2023-08-17T11:56:08;102062.88;;;17.66;100.00
7297;BME280;40758;54.038;11.684;2023-08-17T11:58:51;102094.81;;;17.91;100.00
7297;BME280;40758;54.038;11.684;2023-08-17T12:01:21;102072.72;;;17.86;100.00
7297;BME280;40758;54.038;11.684;2023-08-17T12:04:06;102085.63;;;18.20;100.00
7297;BME280;40758;54.038;11.684;2023-08-17T12:06:43;102090.91;;;18.33;100.00
7297;BME280;40758;54.038;11.684;2023-08-17T12:09:24;102045.59;;;18.01;100.00
7297;BME280;40758;54.038;11.684;2023-08-17T12:12:02;102084.78;;;18.31;100.00
7297;BME280;40758;54.038;11.684;2023-08-17T12:14:32;102070.94;;;18.26;100.00
7297;BME280;40758;54.038;11.684;2023-08-17T12:17:02;102057.06;;;18.33;100.00
7297;BME280;40758;54.038;11.684;2023-08-17T12:19:33;102060.41;;;18.12;100.00
7297;BME280;40758;54.038;11.684;2023-08-17T12:22:18;102052.19;;;18.00;100.00
7297;BME280;40758;54.038;11.684;2023-08-17T12:24:47;102047.06;;;18.03;100.00
7297;BME280;40758;54.038;11.684;2023-08-17T12:27:14;102059.00;;;18.09;100.00
7297;BME280;40758;54.038;11.684;2023-08-17T12:29:48;102062.19;;;18.29;100.00
7297;BME280;40758;54.038;11.684;2023-08-17T12:32:19;102055.88;;;18.29;100.00
7297;BME280;40758;54.038;11.684;2023-08-17T12:34:47;102074.50;;;18.39;100.00
7297;BME280;40758;54.038;11.684;2023-08-17T12:37:21;102039.72;;;18.32;100.00
7297;BME280;40758;54.038;11.684;2023-08-17T12:39:48;102031.78;;;18.48;100.00
7297;BME280;40758;54.038;11.684;2023-08-17T12:42:15;102044.97;;;18.46;100.00
7297;BME280;40758;54.038;11.684;2023-08-17T12:44:43;102053.19;;;18.57;100.00
7297;BME280;40758;54.038;11.684;2023-08-17T12:47:10;102043.50;;;18.55;100.00
7297;BME280;40758;54.038;11.684;2023-08-17T12:49:36;102043.28;;;18.45;100.00
7297;BME280;40758;54.038;11.684;2023-08-17T12:52:05;102048.50;;;18.58;100.00
7297;BME280;40758;54.038;11.684;2023-08-17T12:54:32;102026.00;;;18.61;100.00
7297;BME280;40758;54.038;11.684;2023-08-17T12:56:58;102033.69;;;18.71;100.00
7297;BME280;40758;54.038;11.684;2023-08-17T12:59:29;102024.69;;;18.75;100.00
7297;BME280;40758;54.038;11.684;2023-08-17T13:01:56;102019.91;;;18.71;100.00
7297;BME280;40758;54.038;11.684;2023-08-17T13:04:23;102023.47;;;18.83;100.00
7297;BME280;40758;54.038;11.684;2023-08-17T13:07:22;102035.50;;;18.94;100.00